createdAt,value
2023-02-22T00:05:02.865Z,52.55
2023-02-22T00:15:06.910Z,53.70
2023-02-22T00:25:11.677Z,55.82
2023-02-22T00:35:15.600Z,56.23
2023-02-22T00:45:21.496Z,54.73
2023-02-22T00:55:26.689Z,54.24
2023-02-22T01:05:31.889Z,54.50
2023-02-22T01:15:35.317Z,55.19
2023-02-22T01:25:39.841Z,55.94
2023-02-22T01:35:46.233Z,58.57
2023-02-22T01:45:57.253Z,56.34
2023-02-22T01:56:00.804Z,55.17
2023-02-22T02:06:08.239Z,54.07
2023-02-22T02:16:11.779Z,53.97
2023-02-22T02:26:43.125Z,52.87
2023-02-22T02:36:50.999Z,52.80
2023-02-22T02:46:57.663Z,53.80
2023-02-22T02:57:04.117Z,53.62
2023-02-22T03:07:21.401Z,54.35
2023-02-22T03:17:30.340Z,55.03
2023-02-22T03:27:36.248Z,56.72
2023-02-22T03:37:45.092Z,62.84
2023-02-22T03:47:52.615Z,62.24
2023-02-22T03:57:59.602Z,58.58
2023-02-22T04:08:03.104Z,57.70
2023-02-22T04:18:07.880Z,57.23
2023-02-22T04:28:11.624Z,57.81
2023-02-22T04:38:16.170Z,58.26
2023-02-22T04:48:19.564Z,58.45
2023-02-22T04:58:24.201Z,59.69
2023-02-22T05:08:27.413Z,63.21
2023-02-22T05:18:32.011Z,62.65
2023-02-22T05:28:35.148Z,61.29
2023-02-22T05:38:45.845Z,62.66
2023-02-22T05:48:49.113Z,61.59
2023-02-22T05:58:53.735Z,61.42
2023-02-22T06:08:57.047Z,61.37
2023-02-22T06:19:01.928Z,61.81
2023-02-22T06:29:05.940Z,61.26
2023-02-22T06:39:11.348Z,61.50
2023-02-22T06:49:15.399Z,60.69
2023-02-22T06:59:20.079Z,61.74
2023-02-22T07:09:23.977Z,61.75
2023-02-22T07:19:28.533Z,52.87
2023-02-22T07:29:31.894Z,49.06
2023-02-22T07:39:38.006Z,43.46
2023-02-22T07:49:41.396Z,49.28
2023-02-22T07:59:49.103Z,52.57
2023-02-22T08:09:52.355Z,51.46
2023-02-22T08:19:56.960Z,50.70
2023-02-22T08:30:00.163Z,48.58
2023-02-22T08:40:04.995Z,51.73
2023-02-22T08:50:10.284Z,49.90
2023-02-22T09:00:16.904Z,47.96
2023-02-22T09:10:24.760Z,50.57
2023-02-22T09:20:29.746Z,49.93
2023-02-22T09:30:35.281Z,50.76
2023-02-22T09:40:45.089Z,50.71
2023-02-22T09:50:51.108Z,49.94
2023-02-22T10:01:00.719Z,47.70
2023-02-22T10:11:10.784Z,46.93
2023-02-22T10:21:25.681Z,47.25
2023-02-22T10:31:33.571Z,48.54
2023-02-22T10:41:42.287Z,49.11
2023-02-22T10:51:45.513Z,47.94
2023-02-22T11:01:50.603Z,49.17
2023-02-22T11:12:09.538Z,51.15
2023-02-22T11:22:15.871Z,50.86
2023-02-22T11:32:22.491Z,49.45
2023-02-22T11:42:28.663Z,49.76
2023-02-22T11:52:35.578Z,49.05
2023-02-22T12:02:57.450Z,48.63
2023-02-22T12:13:03.570Z,50.12
2023-02-22T12:23:16.341Z,50.07
2023-02-22T12:33:22.464Z,47.41
2023-02-22T12:43:30.380Z,46.77
2023-02-22T12:53:37.491Z,49.52
2023-02-22T13:03:43.907Z,47.66
2023-02-22T13:13:56.829Z,46.49
2023-02-22T13:24:05.481Z,45.45
2023-02-22T13:34:23.600Z,44.63
2023-02-22T13:45:04.192Z,44.11
2023-02-22T13:55:11.324Z,44.01
2023-02-22T14:05:38.653Z,44.30
2023-02-22T14:16:15.327Z,44.49
2023-02-22T14:26:24.657Z,44.41
2023-02-22T14:36:31.025Z,44.45
2023-02-22T14:46:40.559Z,44.32
2023-02-22T14:56:49.194Z,44.16
2023-02-22T15:06:55.015Z,45.02
2023-02-22T15:17:00.577Z,45.38
2023-02-22T15:27:07.110Z,44.68
2023-02-22T15:37:22.933Z,45.43
2023-02-22T15:47:31.978Z,45.40
